sensor_id;sensor_type;location;lat;lon;timestamp;pressure;altitude;pressure_sealevel;temperature
43292;BMP280;28754;47.700;7.924;2023-09-07T00:00:27;91747.50;;;21.38
43292;BMP280;28754;47.700;7.924;2023-09-07T00:03:14;91753.03;;;21.36
43292;BMP280;28754;47.700;7.924;2023-09-07T00:06:01;91756.88;;;21.31
43292;BMP280;28754;47.700;7.924;2023-09-07T00:08:48;91749.22;;;21.26
43292;BMP280;28754;47.700;7.924;2023-09-07T00:11:35;91747.69;;;21.25
43292;BMP280;28754;47.700;7.924;2023-09-07T00:14:21;91728.88;;;21.19
43292;BMP280;28754;47.700;7.924;2023-09-07T00:17:08;91740.19;;;21.15
43292;BMP280;28754;47.700;7.924;2023-09-07T00:19:55;91736.84;;;21.14
43292;BMP280;28754;47.700;7.924;2023-09-07T00:22:43;91743.44;;;21.12
43292;BMP280;28754;47.700;7.924;2023-09-07T00:25:30;91744.19;;;21.12
43292;BMP280;28754;47.700;7.924;2023-09-07T00:28:16;91749.88;;;21.06
43292;BMP280;28754;47.700;7.924;2023-09-07T00:31:03;91749.41;;;21.04
43292;BMP280;28754;47.700;7.924;2023-09-07T00:33:50;91750.69;;;20.98
43292;BMP280;28754;47.700;7.924;2023-09-07T00:36:36;91749.78;;;20.94
43292;BMP280;28754;47.700;7.924;2023-09-07T00:39:23;91747.00;;;20.91
43292;BMP280;28754;47.700;7.924;2023-09-07T00:42:10;91737.97;;;20.88
43292;BMP280;28754;47.700;7.924;2023-09-07T00:44:57;91751.00;;;20.88
43292;BMP280;28754;47.700;7.924;2023-09-07T00:47:44;91759.44;;;20.85
43292;BMP280;28754;47.700;7.924;2023-09-07T00:50:31;91750.38;;;20.83
43292;BMP280;28754;47.700;7.924;2023-09-07T00:53:18;91748.09;;;20.81
43292;BMP280;28754;47.700;7.924;2023-09-07T00:56:06;91751.31;;;20.78
43292;BMP280;28754;47.700;7.924;2023-09-07T00:58:54;91747.19;;;20.77
43292;BMP280;28754;47.700;7.924;2023-09-07T01:01:41;91743.97;;;20.80
43292;BMP280;28754;47.700;7.924;2023-09-07T01:04:29;91748.69;;;20.87
43292;BMP280;28754;47.700;7.924;2023-09-07T01:07:25;91741.66;;;20.87
43292;BMP280;28754;47.700;7.924;2023-09-07T01:10:13;91739.50;;;20.89
43292;BMP280;28754;47.700;7.924;2023-09-07T01:13:00;91743.19;;;20.88
43292;BMP280;28754;47.700;7.924;2023-09-07T01:15:48;91734.91;;;20.86
43292;BMP280;28754;47.700;7.924;2023-09-07T01:18:35;91730.34;;;20.83
43292;BMP280;28754;47.700;7.924;2023-09-07T01:21:26;91727.28;;;20.81
43292;BMP280;28754;47.700;7.924;2023-09-07T01:24:16;91736.16;;;20.80
43292;BMP280;28754;47.700;7.924;2023-09-07T01:27:05;91729.13;;;20.81
43292;BMP280;28754;47.700;7.924;2023-09-07T01:29:52;91731.41;;;20.82
43292;BMP280;28754;47.700;7.924;2023-09-07T01:32:38;91730.81;;;20.85
43292;BMP280;28754;47.700;7.924;2023-09-07T01:35:26;91727.56;;;20.88
43292;BMP280;28754;47.700;7.924;2023-09-07T01:38:13;91726.94;;;20.91
43292;BMP280;28754;47.700;7.924;2023-09-07T01:41:00;91725.56;;;20.94
43292;BMP280;28754;47.700;7.924;2023-09-07T01:43:48;91713.78;;;20.96
43292;BMP280;28754;47.700;7.924;2023-09-07T01:46:35;91713.00;;;20.96
43292;BMP280;28754;47.700;7.924;2023-09-07T01:49:24;91719.75;;;20.97
43292;BMP280;28754;47.700;7.924;2023-09-07T01:52:10;91718.34;;;20.99
43292;BMP280;28754;47.700;7.924;2023-09-07T01:54:58;91724.19;;;20.96
43292;BMP280;28754;47.700;7.924;2023-09-07T01:57:44;91721.25;;;20.98
43292;BMP280;28754;47.700;7.924;2023-09-07T02:00:37;91719.13;;;20.99
43292;BMP280;28754;47.700;7.924;2023-09-07T02:03:27;91727.38;;;21.01
43292;BMP280;28754;47.700;7.924;2023-09-07T02:06:14;91726.31;;;21.02
43292;BMP280;28754;47.700;7.924;2023-09-07T02:09:01;91716.22;;;21.01
43292;BMP280;28754;47.700;7.924;2023-09-07T02:11:48;91715.13;;;21.02
43292;BMP280;28754;47.700;7.924;2023-09-07T02:14:35;91721.41;;;21.01
43292;BMP280;28754;47.700;7.924;2023-09-07T02:17:21;91719.13;;;20.99
43292;BMP280;28754;47.700;7.924;2023-09-07T02:20:09;91710.53;;;20.99
43292;BMP280;28754;47.700;7.924;2023-09-07T02:22:57;91716.22;;;21.01
43292;BMP280;28754;47.700;7.924;2023-09-07T02:25:43;91716.66;;;21.03
43292;BMP280;28754;47.700;7.924;2023-09-07T02:28:30;91709.91;;;21.02
43292;BMP280;28754;47.700;7.924;2023-09-07T02:31:17;91709.16;;;21.01
43292;BMP280;28754;47.700;7.924;2023-09-07T02:34:04;91724.47;;;21.03
43292;BMP280;28754;47.700;7.924;2023-09-07T02:36:50;91715.56;;;21.04
43292;BMP280;28754;47.700;7.924;2023-09-07T02:39:38;91714.22;;;21.06
43292;BMP280;28754;47.700;7.924;2023-09-07T02:42:25;91708.19;;;21.14
43292;BMP280;28754;47.700;7.924;2023-09-07T02:45:12;91709.84;;;21.19
43292;BMP280;28754;47.700;7.924;2023-09-07T02:47:58;91710.16;;;21.26
43292;BMP280;28754;47.700;7.924;2023-09-07T02:50:45;91709.53;;;21.29
43292;BMP280;28754;47.700;7.924;2023-09-07T02:53:35;91715.19;;;21.31
43292;BMP280;28754;47.700;7.924;2023-09-07T02:56:22;91710.75;;;21.31
43292;BMP280;28754;47.700;7.924;2023-09-07T02:59:09;91710.59;;;21.28
43292;BMP280;28754;47.700;7.924;2023-09-07T03:01:56;91715.19;;;21.31
43292;BMP280;28754;47.700;7.924;2023-09-07T03:04:43;91711.50;;;21.32
43292;BMP280;28754;47.700;7.924;2023-09-07T03:07:33;91712.41;;;21.35
43292;BMP280;28754;47.700;7.924;2023-09-07T03:10:20;91718.38;;;21.36
43292;BMP280;28754;47.700;7.924;2023-09-07T03:13:08;91720.22;;;21.35
43292;BMP280;28754;47.700;7.924;2023-09-07T03:15:55;91711.94;;;21.33
43292;BMP280;28754;47.700;7.924;2023-09-07T03:18:42;91713.16;;;21.36
43292;BMP280;28754;47.700;7.924;2023-09-07T03:21:29;91713.50;;;21.34
43292;BMP280;28754;47.700;7.924;2023-09-07T03:24:17;91722.38;;;21.33
43292;BMP280;28754;47.700;7.924;2023-09-07T03:27:04;91703.56;;;21.28
43292;BMP280;28754;47.700;7.924;2023-09-07T03:29:52;91706.47;;;21.27
43292;BMP280;28754;47.700;7.924;2023-09-07T03:32:40;91711.84;;;21.22
43292;BMP280;28754;47.700;7.924;2023-09-07T03:35:27;91714.63;;;21.17
43292;BMP280;28754;47.700;7.924;2023-09-07T03:38:13;91707.28;;;21.10
43292;BMP280;28754;47.700;7.924;2023-09-07T03:41:00;91709.44;;;21.08
43292;BMP280;28754;47.700;7.924;2023-09-07T03:43:47;91706.81;;;21.08
43292;BMP280;28754;47.700;7.924;2023-09-07T03:46:34;91715.88;;;21.11
43292;BMP280;28754;47.700;7.924;2023-09-07T03:49:20;91708.06;;;21.11
43292;BMP280;28754;47.700;7.924;2023-09-07T03:52:09;91711.56;;;21.15
43292;BMP280;28754;47.700;7.924;2023-09-07T03:54:57;91713.09;;;21.16
43292;BMP280;28754;47.700;7.924;2023-09-07T03:57:45;91707.88;;;21.16
43292;BMP280;28754;47.700;7.924;2023-09-07T04:00:32;91721.66;;;21.16
43292;BMP280;28754;47.700;7.924;2023-09-07T04:03:18;91711.56;;;21.15
43292;BMP280;28754;47.700;7.924;2023-09-07T04:06:05;91710.03;;;21.14
43292;BMP280;28754;47.700;7.924;2023-09-07T04:08:52;91710.66;;;21.11
43292;BMP280;28754;47.700;7.924;2023-09-07T04:11:39;91716.19;;;21.09
43292;BMP280;28754;47.700;7.924;2023-09-07T04:14:27;91705.16;;;21.04
43292;BMP280;28754;47.700;7.924;2023-09-07T04:17:15;91706.56;;;21.01
43292;BMP280;28754;47.700;7.924;2023-09-07T04:20:01;91702.91;;;20.94
43292;BMP280;28754;47.700;7.924;2023-09-07T04:22:50;91710.56;;;20.91
43292;BMP280;28754;47.700;7.924;2023-09-07T04:25:36;91716.69;;;20.86
43292;BMP280;28754;47.700;7.924;2023-09-07T04:28:25;91706.47;;;20.81
43292;BMP280;28754;47.700;7.924;2023-09-07T04:31:12;91714.28;;;20.81
43292;BMP280;28754;47.700;7.924;2023-09-07T04:34:00;91716.13;;;20.81
43292;BMP280;28754;47.700;7.924;2023-09-07T04:36:47;91708.16;;;20.77
43292;BMP280;28754;47.700;7.924;2023-09-07T04:39:34;91705.38;;;20.74
43292;BMP280;28754;47.700;7.924;2023-09-07T04:42:21;91705.25;;;20.70
43292;BMP280;28754;47.700;7.924;2023-09-07T04:45:08;91716.72;;;20.69
43292;BMP280;28754;47.700;7.924;2023-09-07T04:47:55;91705.56;;;20.61
43292;BMP280;28754;47.700;7.924;2023-09-07T04:50:41;91712.13;;;20.58
43292;BMP280;28754;47.700;7.924;2023-09-07T04:53:30;91712.28;;;20.53
43292;BMP280;28754;47.700;7.924;2023-09-07T04:56:18;91713.97;;;20.49
43292;BMP280;28754;47.700;7.924;2023-09-07T04:59:06;91712.44;;;20.48
43292;BMP280;28754;47.700;7.924;2023-09-07T05:01:52;91708.63;;;20.46
43292;BMP280;28754;47.700;7.924;2023-09-07T05:04:39;91716.41;;;20.46
43292;BMP280;28754;47.700;7.924;2023-09-07T05:07:26;91710.91;;;20.47
43292;BMP280;28754;47.700;7.924;2023-09-07T05:10:13;91716.59;;;20.49
43292;BMP280;28754;47.700;7.924;2023-09-07T05:13:00;91708.63;;;20.46
43292;BMP280;28754;47.700;7.924;2023-09-07T05:15:49;91707.69;;;20.50
43292;BMP280;28754;47.700;7.924;2023-09-07T05:18:36;91719.66;;;20.51
43292;BMP280;28754;47.700;7.924;2023-09-07T05:21:24;91718.72;;;20.56
43292;BMP280;28754;47.700;7.924;2023-09-07T05:24:14;91717.06;;;20.60
43292;BMP280;28754;47.700;7.924;2023-09-07T05:27:08;91713.38;;;20.61
43292;BMP280;28754;47.700;7.924;2023-09-07T05:29:55;91719.97;;;20.66
43292;BMP280;28754;47.700;7.924;2023-09-07T05:32:42;91716.72;;;20.69
43292;BMP280;28754;47.700;7.924;2023-09-07T05:35:28;91723.16;;;20.72
43292;BMP280;28754;47.700;7.924;2023-09-07T05:38:20;91727.00;;;20.74
43292;BMP280;28754;47.700;7.924;2023-09-07T05:41:07;91735.69;;;20.78
43292;BMP280;28754;47.700;7.924;2023-09-07T05:43:57;91731.84;;;20.84
43292;BMP280;28754;47.700;7.924;2023-09-07T05:46:46;91730.94;;;20.89
43292;BMP280;28754;47.700;7.924;2023-09-07T05:49:34;91730.91;;;20.97
43292;BMP280;28754;47.700;7.924;2023-09-07T05:52:24;91736.56;;;21.07
43292;BMP280;28754;47.700;7.924;2023-09-07T05:55:23;91737.75;;;21.18
43292;BMP280;28754;47.700;7.924;2023-09-07T05:58:58;91736.78;;;21.31
43292;BMP280;28754;47.700;7.924;2023-09-07T06:02:23;91734.34;;;21.43
43292;BMP280;28754;47.700;7.924;2023-09-07T06:05:21;91731.50;;;21.56
43292;BMP280;28754;47.700;7.924;2023-09-07T06:08:14;91744.31;;;21.69
43292;BMP280;28754;47.700;7.924;2023-09-07T06:11:05;91747.19;;;22.34
43292;BMP280;28754;47.700;7.924;2023-09-07T06:13:52;91737.06;;;23.05
43292;BMP280;28754;47.700;7.924;2023-09-07T06:16:44;91728.06;;;23.70
43292;BMP280;28754;47.700;7.924;2023-09-07T06:19:31;91727.06;;;24.10
43292;BMP280;28754;47.700;7.924;2023-09-07T06:22:19;91732.84;;;24.15
43292;BMP280;28754;47.700;7.924;2023-09-07T06:25:07;91727.06;;;23.98
43292;BMP280;28754;47.700;7.924;2023-09-07T06:27:54;91747.22;;;23.74
43292;BMP280;28754;47.700;7.924;2023-09-07T06:30:41;91748.59;;;23.47
43292;BMP280;28754;47.700;7.924;2023-09-07T06:33:29;91727.78;;;23.39
43292;BMP280;28754;47.700;7.924;2023-09-07T06:36:16;91735.25;;;23.29
43292;BMP280;28754;47.700;7.924;2023-09-07T06:39:03;91728.06;;;23.14
43292;BMP280;28754;47.700;7.924;2023-09-07T06:41:51;91733.16;;;23.10
43292;BMP280;28754;47.700;7.924;2023-09-07T06:44:41;91733.38;;;23.06
43292;BMP280;28754;47.700;7.924;2023-09-07T06:47:29;91734.34;;;23.01
43292;BMP280;28754;47.700;7.924;2023-09-07T06:50:17;91743.69;;;23.02
43292;BMP280;28754;47.700;7.924;2023-09-07T06:53:03;91743.38;;;23.04
43292;BMP280;28754;47.700;7.924;2023-09-07T06:56:03;91745.03;;;23.08
43292;BMP280;28754;47.700;7.924;2023-09-07T06:58:52;91741.75;;;23.11
43292;BMP280;28754;47.700;7.924;2023-09-07T07:01:39;91721.31;;;23.13
43292;BMP280;28754;47.700;7.924;2023-09-07T07:04:26;91715.25;;;23.21
43292;BMP280;28754;47.700;7.924;2023-09-07T07:07:14;91748.09;;;23.22
43292;BMP280;28754;47.700;7.924;2023-09-07T07:10:01;91769.88;;;23.26
43292;BMP280;28754;47.700;7.924;2023-09-07T07:12:49;91767.28;;;23.26
43292;BMP280;28754;47.700;7.924;2023-09-07T07:15:36;91754.00;;;23.31
43292;BMP280;28754;47.700;7.924;2023-09-07T07:18:23;91757.63;;;23.38
43292;BMP280;28754;47.700;7.924;2023-09-07T07:21:11;91755.91;;;23.42
43292;BMP280;28754;47.700;7.924;2023-09-07T07:23:58;91741.72;;;23.43
43292;BMP280;28754;47.700;7.924;2023-09-07T07:26:46;91762.09;;;23.49
43292;BMP280;28754;47.700;7.924;2023-09-07T07:29:33;91757.91;;;23.57
43292;BMP280;28754;47.700;7.924;2023-09-07T07:32:20;91754.19;;;23.58
43292;BMP280;28754;47.700;7.924;2023-09-07T07:35:08;91755.72;;;23.59
43292;BMP280;28754;47.700;7.924;2023-09-07T07:37:58;91761.38;;;23.61
43292;BMP280;28754;47.700;7.924;2023-09-07T07:40:45;91750.72;;;23.66
43292;BMP280;28754;47.700;7.924;2023-09-07T07:43:37;91755.28;;;23.69
43292;BMP280;28754;47.700;7.924;2023-09-07T07:46:27;91758.47;;;23.74
43292;BMP280;28754;47.700;7.924;2023-09-07T07:49:14;91761.72;;;23.83
43292;BMP280;28754;47.700;7.924;2023-09-07T07:52:02;91764.56;;;23.90
43292;BMP280;28754;47.700;7.924;2023-09-07T07:54:51;91760.31;;;23.97
43292;BMP280;28754;47.700;7.924;2023-09-07T07:57:46;91738.81;;;24.04
43292;BMP280;28754;47.700;7.924;2023-09-07T08:00:36;91754.75;;;24.11
43292;BMP280;28754;47.700;7.924;2023-09-07T08:03:24;91753.22;;;24.21
43292;BMP280;28754;47.700;7.924;2023-09-07T08:06:14;91760.97;;;24.30
43292;BMP280;28754;47.700;7.924;2023-09-07T08:09:01;91752.78;;;24.31
43292;BMP280;28754;47.700;7.924;2023-09-07T08:11:49;91744.72;;;24.36
43292;BMP280;28754;47.700;7.924;2023-09-07T08:14:39;91756.47;;;24.42
43292;BMP280;28754;47.700;7.924;2023-09-07T08:17:27;91751.66;;;24.44
43292;BMP280;28754;47.700;7.924;2023-09-07T08:20:14;91768.09;;;24.56
43292;BMP280;28754;47.700;7.924;2023-09-07T08:23:02;91767.56;;;24.63
43292;BMP280;28754;47.700;7.924;2023-09-07T08:25:53;91761.00;;;24.69
43292;BMP280;28754;47.700;7.924;2023-09-07T08:28:41;91765.91;;;24.70
43292;BMP280;28754;47.700;7.924;2023-09-07T08:31:33;91762.00;;;24.64
43292;BMP280;28754;47.700;7.924;2023-09-07T08:34:20;91762.97;;;24.60
43292;BMP280;28754;47.700;7.924;2023-09-07T08:37:08;91757.56;;;24.53
43292;BMP280;28754;47.700;7.924;2023-09-07T08:39:55;91764.63;;;24.52
43292;BMP280;28754;47.700;7.924;2023-09-07T08:42:43;91761.69;;;24.54
43292;BMP280;28754;47.700;7.924;2023-09-07T08:45:31;91763.41;;;24.62
43292;BMP280;28754;47.700;7.924;2023-09-07T08:48:20;91764.13;;;24.74
43292;BMP280;28754;47.700;7.924;2023-09-07T08:51:09;91756.38;;;24.89
43292;BMP280;28754;47.700;7.924;2023-09-07T08:53:58;91767.91;;;25.00
43292;BMP280;28754;47.700;7.924;2023-09-07T08:56:46;91753.56;;;25.10
43292;BMP280;28754;47.700;7.924;2023-09-07T08:59:33;91767.63;;;25.17
43292;BMP280;28754;47.700;7.924;2023-09-07T09:02:20;91756.44;;;25.20
43292;BMP280;28754;47.700;7.924;2023-09-07T09:05:09;91752.06;;;25.24
43292;BMP280;28754;47.700;7.924;2023-09-07T09:08:04;91753.31;;;25.30
43292;BMP280;28754;47.700;7.924;2023-09-07T09:11:03;91755.47;;;25.40
43292;BMP280;28754;47.700;7.924;2023-09-07T09:13:52;91766.22;;;25.50
43292;BMP280;28754;47.700;7.924;2023-09-07T09:16:39;91776.81;;;25.53
43292;BMP280;28754;47.700;7.924;2023-09-07T09:19:34;91756.91;;;25.52
43292;BMP280;28754;47.700;7.924;2023-09-07T09:22:21;91764.63;;;25.46
43292;BMP280;28754;47.700;7.924;2023-09-07T09:25:08;91766.97;;;25.35
43292;BMP280;28754;47.700;7.924;2023-09-07T09:27:54;91752.75;;;25.36
43292;BMP280;28754;47.700;7.924;2023-09-07T09:30:42;91767.25;;;25.46
43292;BMP280;28754;47.700;7.924;2023-09-07T09:33:32;91771.03;;;25.48
43292;BMP280;28754;47.700;7.924;2023-09-07T09:36:22;91767.25;;;25.46
43292;BMP280;28754;47.700;7.924;2023-09-07T09:39:08;91762.84;;;25.50
43292;BMP280;28754;47.700;7.924;2023-09-07T09:41:56;91763.72;;;25.53
43292;BMP280;28754;47.700;7.924;2023-09-07T09:44:44;91765.34;;;25.58
43292;BMP280;28754;47.700;7.924;2023-09-07T09:47:31;91769.06;;;25.57
43292;BMP280;28754;47.700;7.924;2023-09-07T09:50:20;91755.94;;;25.57
43292;BMP280;28754;47.700;7.924;2023-09-07T09:53:07;91755.84;;;25.53
43292;BMP280;28754;47.700;7.924;2023-09-07T09:55:54;91758.88;;;25.55
43292;BMP280;28754;47.700;7.924;2023-09-07T09:58:42;91760.28;;;25.65
43292;BMP280;28754;47.700;7.924;2023-09-07T10:01:28;91747.06;;;25.77
43292;BMP280;28754;47.700;7.924;2023-09-07T10:04:17;91748.00;;;25.84
43292;BMP280;28754;47.700;7.924;2023-09-07T10:07:05;91752.13;;;25.85
43292;BMP280;28754;47.700;7.924;2023-09-07T10:09:56;91754.75;;;25.85
43292;BMP280;28754;47.700;7.924;2023-09-07T10:12:45;91761.19;;;25.87
43292;BMP280;28754;47.700;7.924;2023-09-07T10:15:32;91754.53;;;25.90
43292;BMP280;28754;47.700;7.924;2023-09-07T10:18:34;91747.81;;;25.92
43292;BMP280;28754;47.700;7.924;2023-09-07T10:21:24;91745.47;;;26.03
43292;BMP280;28754;47.700;7.924;2023-09-07T10:24:25;91737.72;;;26.10
43292;BMP280;28754;47.700;7.924;2023-09-07T10:27:12;91736.84;;;26.18
43292;BMP280;28754;47.700;7.924;2023-09-07T10:29:59;91736.84;;;26.18
43292;BMP280;28754;47.700;7.924;2023-09-07T10:32:46;91732.06;;;26.23
43292;BMP280;28754;47.700;7.924;2023-09-07T10:35:35;91746.13;;;26.30
43292;BMP280;28754;47.700;7.924;2023-09-07T10:38:24;91741.00;;;26.37
43292;BMP280;28754;47.700;7.924;2023-09-07T10:41:13;91746.25;;;26.37
43292;BMP280;28754;47.700;7.924;2023-09-07T10:44:00;91746.94;;;26.34
43292;BMP280;28754;47.700;7.924;2023-09-07T10:46:47;91752.19;;;26.34
43292;BMP280;28754;47.700;7.924;2023-09-07T10:49:36;91746.75;;;26.43
43292;BMP280;28754;47.700;7.924;2023-09-07T10:52:22;91749.03;;;26.44
43292;BMP280;28754;47.700;7.924;2023-09-07T10:55:11;91748.34;;;26.47
43292;BMP280;28754;47.700;7.924;2023-09-07T10:57:58;91737.84;;;26.47
43292;BMP280;28754;47.700;7.924;2023-09-07T11:00:44;91739.72;;;26.47
43292;BMP280;28754;47.700;7.924;2023-09-07T11:03:31;91733.69;;;26.46
43292;BMP280;28754;47.700;7.924;2023-09-07T11:06:20;91741.25;;;26.48
43292;BMP280;28754;47.700;7.924;2023-09-07T11:09:09;91737.34;;;26.42
43292;BMP280;28754;47.700;7.924;2023-09-07T11:11:56;91738.94;;;26.46
43292;BMP280;28754;47.700;7.924;2023-09-07T11:14:43;91733.00;;;26.49
43292;BMP280;28754;47.700;7.924;2023-09-07T11:17:33;91733.94;;;26.57
43292;BMP280;28754;47.700;7.924;2023-09-07T11:20:22;91737.78;;;26.62
43292;BMP280;28754;47.700;7.924;2023-09-07T11:23:09;91734.28;;;26.74
43292;BMP280;28754;47.700;7.924;2023-09-07T11:25:56;91735.56;;;26.80
43292;BMP280;28754;47.700;7.924;2023-09-07T11:28:46;91717.56;;;26.82
43292;BMP280;28754;47.700;7.924;2023-09-07T11:31:33;91729.47;;;26.94
43292;BMP280;28754;47.700;7.924;2023-09-07T11:34:19;91732.72;;;27.07
43292;BMP280;28754;47.700;7.924;2023-09-07T11:37:06;91734.72;;;27.13
43292;BMP280;28754;47.700;7.924;2023-09-07T11:39:53;91727.22;;;27.15
43292;BMP280;28754;47.700;7.924;2023-09-07T11:42:41;91727.66;;;27.17
43292;BMP280;28754;47.700;7.924;2023-09-07T11:45:28;91724.31;;;27.20
43292;BMP280;28754;47.700;7.924;2023-09-07T11:48:14;91734.50;;;27.22
43292;BMP280;28754;47.700;7.924;2023-09-07T11:51:01;91733.75;;;27.21
43292;BMP280;28754;47.700;7.924;2023-09-07T11:53:48;91734.16;;;27.23
43292;BMP280;28754;47.700;7.924;2023-09-07T11:56:35;91735.84;;;27.34
43292;BMP280;28754;47.700;7.924;2023-09-07T11:59:26;91728.91;;;27.42
43292;BMP280;28754;47.700;7.924;2023-09-07T12:02:14;91729.84;;;27.53
43292;BMP280;28754;47.700;7.924;2023-09-07T12:05:02;91722.38;;;27.55
43292;BMP280;28754;47.700;7.924;2023-09-07T12:07:50;91727.63;;;27.55
43292;BMP280;28754;47.700;7.924;2023-09-07T12:10:36;91727.63;;;27.55
43292;BMP280;28754;47.700;7.924;2023-09-07T12:13:23;91718.69;;;27.59
43292;BMP280;28754;47.700;7.924;2023-09-07T12:16:12;91724.81;;;27.66
43292;BMP280;28754;47.700;7.924;2023-09-07T12:18:59;91722.59;;;27.68
43292;BMP280;28754;47.700;7.924;2023-09-07T12:21:45;91717.72;;;27.70
43292;BMP280;28754;47.700;7.924;2023-09-07T12:24:32;91724.22;;;27.76
43292;BMP280;28754;47.700;7.924;2023-09-07T12:27:19;91724.34;;;27.83
43292;BMP280;28754;47.700;7.924;2023-09-07T12:30:06;91713.88;;;27.87
43292;BMP280;28754;47.700;7.924;2023-09-07T12:32:58;91717.78;;;27.96
43292;BMP280;28754;47.700;7.924;2023-09-07T12:35:45;91721.25;;;28.00
43292;BMP280;28754;47.700;7.924;2023-09-07T12:38:32;91723.16;;;28.03
43292;BMP280;28754;47.700;7.924;2023-09-07T12:41:18;91710.88;;;28.10
43292;BMP280;28754;47.700;7.924;2023-09-07T12:44:05;91711.63;;;28.11
43292;BMP280;28754;47.700;7.924;2023-09-07T12:46:52;91712.75;;;28.10
43292;BMP280;28754;47.700;7.924;2023-09-07T12:49:39;91718.78;;;28.10
43292;BMP280;28754;47.700;7.924;2023-09-07T12:52:26;91713.16;;;28.12
43292;BMP280;28754;47.700;7.924;2023-09-07T12:55:13;91715.50;;;28.17
43292;BMP280;28754;47.700;7.924;2023-09-07T12:57:59;91706.16;;;28.23
43292;BMP280;28754;47.700;7.924;2023-09-07T13:00:47;91706.94;;;28.23
43292;BMP280;28754;47.700;7.924;2023-09-07T13:03:37;91699.47;;;28.29
43292;BMP280;28754;47.700;7.924;2023-09-07T13:06:24;91698.06;;;28.34
43292;BMP280;28754;47.700;7.924;2023-09-07T13:09:11;91701.91;;;28.40
43292;BMP280;28754;47.700;7.924;2023-09-07T13:11:58;91706.47;;;28.43
43292;BMP280;28754;47.700;7.924;2023-09-07T13:14:44;91695.19;;;28.46
43292;BMP280;28754;47.700;7.924;2023-09-07T13:17:31;91695.91;;;28.43
43292;BMP280;28754;47.700;7.924;2023-09-07T13:20:18;91696.66;;;28.40
43292;BMP280;28754;47.700;7.924;2023-09-07T13:23:06;91695.09;;;28.36
43292;BMP280;28754;47.700;7.924;2023-09-07T13:25:57;91689.09;;;28.39
43292;BMP280;28754;47.700;7.924;2023-09-07T13:28:43;91689.16;;;28.42
43292;BMP280;28754;47.700;7.924;2023-09-07T13:31:30;91687.28;;;28.43
43292;BMP280;28754;47.700;7.924;2023-09-07T13:34:17;91689.91;;;28.43
43292;BMP280;28754;47.700;7.924;2023-09-07T13:37:04;91691.06;;;28.45
43292;BMP280;28754;47.700;7.924;2023-09-07T13:39:50;91686.25;;;28.51
43292;BMP280;28754;47.700;7.924;2023-09-07T13:42:37;91690.16;;;28.60
43292;BMP280;28754;47.700;7.924;2023-09-07T13:45:25;91684.97;;;28.67
43292;BMP280;28754;47.700;7.924;2023-09-07T13:48:11;91682.06;;;28.75
43292;BMP280;28754;47.700;7.924;2023-09-07T13:50:58;91680.97;;;28.80
43292;BMP280;28754;47.700;7.924;2023-09-07T13:53:45;91681.47;;;28.89
43292;BMP280;28754;47.700;7.924;2023-09-07T13:56:33;91681.34;;;29.11
43292;BMP280;28754;47.700;7.924;2023-09-07T13:59:20;91681.28;;;29.40
43292;BMP280;28754;47.700;7.924;2023-09-07T14:02:06;91689.16;;;29.72
43292;BMP280;28754;47.700;7.924;2023-09-07T14:04:56;91679.63;;;30.11
43292;BMP280;28754;47.700;7.924;2023-09-07T14:07:43;91687.84;;;30.49
43292;BMP280;28754;47.700;7.924;2023-09-07T14:10:30;91683.16;;;30.82
43292;BMP280;28754;47.700;7.924;2023-09-07T14:13:18;91683.88;;;30.86
43292;BMP280;28754;47.700;7.924;2023-09-07T14:16:05;91685.41;;;30.83
43292;BMP280;28754;47.700;7.924;2023-09-07T14:18:51;91679.78;;;30.99
43292;BMP280;28754;47.700;7.924;2023-09-07T14:21:38;91676.44;;;31.12
43292;BMP280;28754;47.700;7.924;2023-09-07T14:24:25;91680.59;;;31.10
43292;BMP280;28754;47.700;7.924;2023-09-07T14:27:12;91676.06;;;31.10
43292;BMP280;28754;47.700;7.924;2023-09-07T14:29:58;91677.97;;;31.16
43292;BMP280;28754;47.700;7.924;2023-09-07T14:32:45;91688.56;;;31.16
43292;BMP280;28754;47.700;7.924;2023-09-07T14:35:33;91682.50;;;31.12
43292;BMP280;28754;47.700;7.924;2023-09-07T14:38:20;91682.50;;;31.12
43292;BMP280;28754;47.700;7.924;2023-09-07T14:41:11;91685.13;;;31.12
43292;BMP280;28754;47.700;7.924;2023-09-07T14:44:05;91684.78;;;31.14
43292;BMP280;28754;47.700;7.924;2023-09-07T14:46:56;91685.88;;;31.13
43292;BMP280;28754;47.700;7.924;2023-09-07T14:49:46;91677.94;;;31.06
43292;BMP280;28754;47.700;7.924;2023-09-07T14:52:39;91677.53;;;30.97
43292;BMP280;28754;47.700;7.924;2023-09-07T14:55:29;91674.47;;;30.92
43292;BMP280;28754;47.700;7.924;2023-09-07T14:58:22;91681.28;;;30.96
43292;BMP280;28754;47.700;7.924;2023-09-07T15:01:08;91679.78;;;30.99
43292;BMP280;28754;47.700;7.924;2023-09-07T15:03:55;91680.16;;;31.01
43292;BMP280;28754;47.700;7.924;2023-09-07T15:06:42;91681.69;;;30.95
43292;BMP280;28754;47.700;7.924;2023-09-07T15:09:29;91687.66;;;30.81
43292;BMP280;28754;47.700;7.924;2023-09-07T15:12:16;91678.59;;;30.76
43292;BMP280;28754;47.700;7.924;2023-09-07T15:15:03;91684.19;;;30.74
43292;BMP280;28754;47.700;7.924;2023-09-07T15:17:50;91681.22;;;30.79
43292;BMP280;28754;47.700;7.924;2023-09-07T15:20:37;91673.63;;;30.74
43292;BMP280;28754;47.700;7.924;2023-09-07T15:23:24;91683.78;;;30.65
43292;BMP280;28754;47.700;7.924;2023-09-07T15:26:11;91681.03;;;30.44
43292;BMP280;28754;47.700;7.924;2023-09-07T15:28:57;91677.97;;;30.36
43292;BMP280;28754;47.700;7.924;2023-09-07T15:31:52;91674.53;;;30.28
43292;BMP280;28754;47.700;7.924;2023-09-07T15:35:17;91680.09;;;30.20
43292;BMP280;28754;47.700;7.924;2023-09-07T15:38:26;91677.78;;;30.15
43292;BMP280;28754;47.700;7.924;2023-09-07T15:41:19;91680.06;;;30.16
43292;BMP280;28754;47.700;7.924;2023-09-07T15:44:06;91680.53;;;30.22
43292;BMP280;28754;47.700;7.924;2023-09-07T15:46:52;91680.53;;;30.22
43292;BMP280;28754;47.700;7.924;2023-09-07T15:49:40;91681.22;;;30.15
43292;BMP280;28754;47.700;7.924;2023-09-07T15:52:56;91683.38;;;30.03
43292;BMP280;28754;47.700;7.924;2023-09-07T15:56:16;91686.34;;;29.98
43292;BMP280;28754;47.700;7.924;2023-09-07T15:59:06;91690.88;;;29.98
43292;BMP280;28754;47.700;7.924;2023-09-07T16:01:52;91690.88;;;29.98
43292;BMP280;28754;47.700;7.924;2023-09-07T16:04:39;91685.59;;;29.98
43292;BMP280;28754;47.700;7.924;2023-09-07T16:07:26;91692.00;;;29.97
43292;BMP280;28754;47.700;7.924;2023-09-07T16:10:12;91693.06;;;29.89